Main page
METAR-TAF:

METAR-TAF

Airports :

Šiauliai International Airport

Šiauliai, Lithuania

latitude: 55-53-38N, longitude: 023-23-42E, elevation: 135 m

Current weather observation

The report was made 43 minutes ago, at 22:50 UTC
Wind 2 kt from variable directions
Temperature 3°C
Humidity 93%
Pressure 1006 hPa
Visibility: 0900 m
fog,

METAR: EYSA 232250Z VRB02KT 0900 R14L/1000N FG NSC 03/02 Q1006 NOSIG

Time: 01:33 (23:33 UTC)

Forecast

The report was made 3 hours and 33 minutes ago, at 20:00 UTC
Forecast valid from 23 at 21 UTC to 24 at 06 UTC
Wind 4 kt from variable directions
Visibility: 5000 m
Scattered clouds at a height of 1500 ft
Broken clouds at a height of 3000 ft
mist
Temporary
from 23 at 21 UTC to 23 at 24 UTC
Visibility: 0800 m
Scattered clouds at a height of 200 ft
fog
Becoming
from 24 at 00 UTC to 24 at 02 UTC
Visibility: 0500 m
Overcast at a height of 200 ft
light drizzle, fog,

TAF: EYSA 232000Z 2321/2406 VRB04KT 5000 BR SCT015 BKN030 TEMPO 2321/2324 0800 FG SCT002 BECMG 2400/2402 0500 -DZ FG OVC002

Weather observations and forecasts of more than 4000 airports (METAR and TAF reports).

The available stations are represented by yellow and red dots on the map.

Hover mouse over dot to see the name of the station.

Then click to see weather observations and forecasts.

To change the map : click on the green buttons with a black cross to zoom in, on the green button with a dash to zoom out, or on the green arrows for adjacent maps.


METAR-TAF: